Time;durP1;ratioP1;P1;durP2;ratioP2;P2;SDS_P1;SDS_P2;PMS_P1;PMS_P2;Temp;Humidity;BMP_temperature;BMP_pressure;BME280_temperature;BME280_humidity;BME280_pressure;Samples;Min_cycle;Max_cycle;Signal;HPM_P1;HPM_P2
2022/03/07 00:01:38;;;;;;;26.92;11.60;;;;;;;7.58;37.79;100973.28;5000762;28;20053;-71
2022/03/07 00:04:23;;;;;;;19.38;11.75;;;;;;;7.54;38.18;100974.97;5012515;28;20543;-71
2022/03/07 00:07:08;;;;;;;24.58;14.77;;;;;;;7.44;37.97;100977.00;5012965;28;20065;-71
2022/03/07 00:09:53;;;;;;;20.02;10.95;;;;;;;7.53;38.50;100976.06;5004458;28;20049;-71
2022/03/07 00:12:38;;;;;;;23.80;11.43;;;;;;;7.52;38.15;100977.16;5004630;28;20072;-71
2022/03/07 00:15:23;;;;;;;20.88;12.52;;;;;;;7.34;38.26;100974.41;5012760;28;20157;-71
2022/03/07 00:18:08;;;;;;;20.92;10.93;;;;;;;7.09;41.30;100981.69;5012881;28;20524;-71
2022/03/07 00:20:53;;;;;;;22.33;11.65;;;;;;;6.97;38.76;100980.44;5012541;28;20049;-71
2022/03/07 00:23:38;;;;;;;20.17;11.32;;;;;;;6.98;38.49;100982.06;5010276;28;20437;-71
2022/03/07 00:26:23;;;;;;;19.55;10.77;;;;;;;6.92;39.31;100988.59;4996040;28;20413;-71
2022/03/07 00:29:07;;;;;;;18.67;10.52;;;;;;;7.08;38.83;100987.38;4992823;28;20081;-71
2022/03/07 00:31:55;;;;;;;26.33;13.35;;;;;;;6.97;39.00;100992.06;4992970;28;20049;-71
2022/03/07 00:34:40;;;;;;;21.85;12.23;;;;;;;7.24;39.41;100989.66;4992891;28;20046;-71
2022/03/07 00:37:25;;;;;;;17.75;10.10;;;;;;;7.24;39.21;101002.34;4993325;28;20146;-71
2022/03/07 00:40:10;;;;;;;24.33;17.20;;;;;;;7.11;38.61;100998.41;4992608;28;20121;-71
2022/03/07 00:42:55;;;;;;;24.73;13.23;;;;;;;7.08;38.72;100995.47;4992016;28;20057;-71
2022/03/07 00:45:40;;;;;;;16.02;9.63;;;;;;;7.11;38.51;101005.75;4992895;28;20053;-71
2022/03/07 00:48:25;;;;;;;17.60;10.02;;;;;;;6.98;38.88;100992.88;4992662;28;20107;-71
2022/03/07 00:51:10;;;;;;;15.82;10.02;;;;;;;6.94;38.98;101003.44;4995472;28;20049;-71
2022/03/07 00:53:55;;;;;;;18.77;11.43;;;;;;;6.91;40.53;100995.88;4992582;28;20541;-71
2022/03/07 00:56:40;;;;;;;18.58;10.25;;;;;;;7.08;38.48;100999.00;4992806;28;20049;-71
2022/03/07 00:59:25;;;;;;;17.35;11.40;;;;;;;6.83;39.24;101000.03;4993983;28;20049;-71
2022/03/07 01:02:11;;;;;;;20.38;9.75;;;;;;;6.83;39.30;101002.72;5012220;28;20057;-71
2022/03/07 01:04:55;;;;;;;20.85;11.85;;;;;;;6.97;39.09;101002.06;5010221;28;20068;-71
2022/03/07 01:07:41;;;;;;;15.55;8.98;;;;;;;6.78;39.73;100993.84;4992470;28;20057;-71
2022/03/07 01:10:26;;;;;;;18.48;8.90;;;;;;;6.98;42.80;101003.69;4992222;28;20524;-72
2022/03/07 01:13:11;;;;;;;;;;;;;;;7.01;39.06;100995.03;4992897;28;20053;-71
2022/03/07 01:15:55;;;;;;;19.33;10.15;;;;;;;7.00;39.73;100996.09;4996825;28;19914;-71
2022/03/07 01:18:40;;;;;;;14.88;9.48;;;;;;;6.96;41.34;100997.78;4984391;28;20045;-71
2022/03/07 01:21:25;;;;;;;17.17;9.27;;;;;;;6.87;41.35;100986.75;4992385;28;20054;-71
2022/03/07 01:24:10;;;;;;;14.98;9.30;;;;;;;6.65;39.73;100984.50;4992285;28;20073;-71
2022/03/07 01:26:55;;;;;;;22.40;11.57;;;;;;;6.76;41.48;100985.22;4980422;28;20065;-71
2022/03/07 01:29:40;;;;;;;21.33;10.15;;;;;;;6.82;41.66;100981.38;4984007;28;20053;-71
2022/03/07 01:32:25;;;;;;;16.10;9.90;;;;;;;6.72;41.69;100984.97;4992296;28;20053;-71
2022/03/07 01:35:10;;;;;;;16.83;8.68;;;;;;;6.63;39.72;100977.75;4992350;28;20050;-71
2022/03/07 01:37:55;;;;;;;15.82;8.75;;;;;;;6.55;40.79;100968.38;4995961;28;20130;-71
2022/03/07 01:40:42;;;;;;;17.88;9.15;;;;;;;6.49;40.10;100972.19;4992208;28;20053;-71
2022/03/07 01:43:27;;;;;;;20.10;10.90;;;;;;;6.65;43.14;100967.50;4997745;28;20520;-71
2022/03/07 01:46:12;;;;;;;19.52;11.50;;;;;;;6.49;40.19;100964.09;4992790;28;20045;-71
2022/03/07 01:48:57;;;;;;;19.45;9.43;;;;;;;6.31;40.38;100962.06;5011674;28;20052;-71
2022/03/07 01:51:45;;;;;;;18.35;10.38;;;;;;;6.56;41.80;100956.47;5011889;28;20057;-71
2022/03/07 01:54:30;;;;;;;19.83;10.13;;;;;;;6.79;43.76;100963.03;5012383;28;20049;-72
2022/03/07 01:57:15;;;;;;;13.00;8.07;;;;;;;6.88;42.45;100955.94;5015015;28;20405;-71
2022/03/07 02:00:00;;;;;;;13.80;8.50;;;;;;;6.94;43.30;100952.09;5015108;28;20049;-71
2022/03/07 02:02:45;;;;;;;14.05;8.13;;;;;;;6.99;44.46;100951.22;5002477;28;20044;-71
2022/03/07 02:05:35;;;;;;;19.17;11.10;;;;;;;6.91;44.61;100955.34;5015042;28;20448;-71
2022/03/07 02:08:24;;;;;;;17.80;10.40;;;;;;;6.88;43.23;100950.53;4999589;28;20057;-71
2022/03/07 02:11:25;;;;;;;17.70;10.52;;;;;;;6.94;44.62;100951.28;5006927;28;20457;-71
2022/03/07 02:14:20;;;;;;;17.40;9.93;;;;;;;7.02;43.81;100961.47;5005074;28;20061;-71
2022/03/07 02:17:09;;;;;;;23.23;10.90;;;;;;;6.99;43.36;100949.34;5014877;28;20052;-70
2022/03/07 02:19:54;;;;;;;15.10;8.32;;;;;;;6.96;44.85;100944.47;4995363;28;20049;-71
2022/03/07 02:22:41;;;;;;;16.15;10.07;;;;;;;6.89;43.40;100946.72;4995420;28;20049;-76
2022/03/07 02:25:27;;;;;;;20.48;10.23;;;;;;;7.01;43.61;100938.25;4987201;28;20046;-71
2022/03/07 02:28:12;;;;;;;14.57;8.93;;;;;;;6.94;43.78;100935.88;4995138;28;20700;-72
2022/03/07 02:30:57;;;;;;;14.65;8.45;;;;;;;6.96;43.94;100939.06;4986728;28;20525;-72
2022/03/07 02:33:43;;;;;;;16.35;10.05;;;;;;;6.98;42.34;100936.91;4995150;28;20513;-74
2022/03/07 02:36:30;;;;;;;17.67;10.10;;;;;;;6.88;43.58;100940.50;4995039;28;20065;-74
2022/03/07 02:39:15;;;;;;;29.17;10.50;;;;;;;6.95;44.47;100939.38;4997447;28;20133;-74
2022/03/07 02:42:02;;;;;;;19.23;11.32;;;;;;;6.90;43.85;100936.72;5006730;28;20053;-74
2022/03/07 02:44:47;;;;;;;20.25;8.45;;;;;;;6.96;43.14;100939.06;5008189;28;20049;-75
2022/03/07 02:47:32;;;;;;;13.52;7.57;;;;;;;6.86;42.75;100939.97;5000343;28;20123;-74
2022/03/07 02:50:17;;;;;;;11.90;7.60;;;;;;;6.80;44.23;100941.16;5014366;28;20053;-74
2022/03/07 02:53:03;;;;;;;17.95;9.60;;;;;;;6.73;44.28;100934.44;5014291;28;20056;-74
2022/03/07 02:55:48;;;;;;;19.92;9.93;;;;;;;6.84;43.82;100934.06;5005346;28;20114;-74
2022/03/07 02:58:33;;;;;;;20.55;8.80;;;;;;;6.77;43.09;100928.19;5014440;28;20088;-74
2022/03/07 03:01:18;;;;;;;13.82;7.55;;;;;;;6.81;42.90;100929.22;5014324;28;20053;-75
2022/03/07 03:04:03;;;;;;;16.88;10.38;;;;;;;6.68;43.02;100927.19;5006300;28;20053;-74
2022/03/07 03:06:48;;;;;;;13.63;8.13;;;;;;;6.64;40.96;100933.44;5013061;28;20041;-74
2022/03/07 03:09:32;;;;;;;19.03;8.40;;;;;;;6.73;42.13;100927.16;5013858;28;20500;-74
2022/03/07 03:12:24;;;;;;;18.90;8.82;;;;;;;6.79;41.55;100936.00;4999355;28;20053;-74
2022/03/07 03:15:08;;;;;;;20.25;9.98;;;;;;;6.61;42.15;100928.59;4994352;28;20505;-74
2022/03/07 03:17:53;;;;;;;12.13;7.03;;;;;;;6.29;41.73;100924.53;4994358;28;20409;-74
2022/03/07 03:20:39;;;;;;;20.88;9.00;;;;;;;6.37;41.31;100923.94;4994576;28;20048;-74
2022/03/07 03:23:24;;;;;;;19.35;10.45;;;;;;;6.55;43.52;100924.34;5018601;22;20057;-78
2022/03/07 03:26:09;;;;;;;12.40;7.32;;;;;;;6.64;43.23;100925.34;4989752;28;20058;-79
2022/03/07 03:28:54;;;;;;;13.98;8.35;;;;;;;6.63;41.86;100921.84;4978602;28;20514;-79
2022/03/07 03:31:38;;;;;;;19.63;10.13;;;;;;;6.32;41.73;100921.28;4994020;28;20054;-78
2022/03/07 03:34:23;;;;;;;16.05;9.57;;;;;;;6.51;43.61;100929.50;4994272;28;20061;-78
2022/03/07 03:37:08;;;;;;;20.52;10.73;;;;;;;6.58;44.17;100921.06;4983233;28;20733;-78
2022/03/07 03:39:53;;;;;;;21.20;11.57;;;;;;;6.60;42.15;100918.91;4993855;28;20411;-78
2022/03/07 03:42:40;;;;;;;19.10;10.07;;;;;;;6.20;42.99;100925.41;4999916;28;20050;-77
2022/03/07 03:45:24;;;;;;;21.15;10.90;;;;;;;6.36;42.45;100926.91;4990991;28;20514;-79
2022/03/07 03:48:09;;;;;;;15.32;8.45;;;;;;;6.40;43.02;100928.75;4981485;28;20045;-77
2022/03/07 03:50:54;;;;;;;15.52;8.93;;;;;;;6.45;42.58;100930.63;4976854;28;20069;-78
2022/03/07 03:53:39;;;;;;;16.90;10.63;;;;;;;6.33;42.13;100928.28;5000471;28;20517;-78
2022/03/07 03:56:24;;;;;;;15.30;8.48;;;;;;;6.10;43.25;100928.16;5009186;28;20796;-79
2022/03/07 03:59:08;;;;;;;12.65;7.78;;;;;;;6.23;42.01;100927.56;5006899;28;20045;-78
2022/03/07 04:01:53;;;;;;;15.38;7.47;;;;;;;6.37;43.55;100929.34;4993718;28;20053;-78
2022/03/07 04:04:38;;;;;;;21.53;11.07;;;;;;;6.44;42.17;100923.63;4995504;28;20058;-78
2022/03/07 04:07:23;;;;;;;13.93;8.60;;;;;;;6.15;42.60;100926.25;4993411;28;20049;-78
2022/03/07 04:10:09;;;;;;;19.00;10.10;;;;;;;6.23;42.71;100931.06;4993426;28;20525;-77
2022/03/07 04:12:54;;;;;;;17.00;10.52;;;;;;;6.32;41.66;100931.25;4993453;28;20045;-78
2022/03/07 04:15:38;;;;;;;17.13;9.50;;;;;;;6.07;42.03;100928.75;5003648;28;20045;-81
2022/03/07 04:18:23;;;;;;;16.83;8.45;;;;;;;5.99;41.72;100932.84;4999946;28;20053;-80
2022/03/07 04:21:08;;;;;;;15.23;8.27;;;;;;;5.92;41.60;100933.16;4999660;28;20049;-79
2022/03/07 04:23:53;;;;;;;19.73;11.00;;;;;;;5.58;42.65;100932.22;5000628;28;20041;-80
2022/03/07 04:26:39;;;;;;;15.75;8.90;;;;;;;5.40;43.32;100930.13;4986776;28;20122;-80
2022/03/07 04:29:24;;;;;;;20.40;11.57;;;;;;;5.58;42.65;100933.03;4993868;28;20049;-80
2022/03/07 04:32:09;;;;;;;20.13;10.73;;;;;;;5.64;43.36;100938.41;4998050;28;20418;-80
2022/03/07 04:34:54;;;;;;;14.73;8.27;;;;;;;5.90;42.49;100929.91;4998535;28;20034;-80
2022/03/07 04:37:42;;;;;;;18.05;8.57;;;;;;;5.80;42.96;100926.44;4989557;28;20525;-78
2022/03/07 04:40:27;;;;;;;23.60;11.00;;;;;;;5.84;43.20;100943.69;4995353;28;20069;-79
2022/03/07 04:43:12;;;;;;;21.77;10.68;;;;;;;5.55;43.67;100944.34;4979463;28;20049;-80
2022/03/07 04:45:58;;;;;;;19.37;9.10;;;;;;;5.47;42.56;100936.03;4986623;28;20046;-79
2022/03/07 04:48:43;;;;;;;18.85;10.45;;;;;;;5.78;44.16;100940.22;5006652;28;20654;-80
2022/03/07 04:51:27;;;;;;;16.23;8.73;;;;;;;5.90;44.78;100946.09;5001786;28;20061;-79
2022/03/07 04:54:15;;;;;;;23.05;10.25;;;;;;;5.84;43.41;100952.56;4985649;28;20065;-78
2022/03/07 04:57:00;;;;;;;17.67;10.35;;;;;;;5.87;43.33;100948.56;4983838;28;20049;-78
2022/03/07 04:59:45;;;;;;;12.52;7.72;;;;;;;6.07;44.43;100950.34;5001884;28;20065;-77
2022/03/07 05:02:30;;;;;;;18.85;10.93;;;;;;;5.85;43.62;100958.78;4996685;28;20415;-78
2022/03/07 05:05:14;;;;;;;12.00;7.73;;;;;;;5.79;42.95;100959.91;4981987;28;20061;-78
2022/03/07 05:07:59;;;;;;;13.60;8.45;;;;;;;5.98;41.81;100958.22;4994364;28;20045;-78
2022/03/07 05:10:44;;;;;;;15.27;9.20;;;;;;;5.68;42.52;100963.75;4995684;28;20073;-79
2022/03/07 05:13:28;;;;;;;19.30;10.77;;;;;;;5.81;42.37;100958.53;4982865;28;20048;-77
2022/03/07 05:16:13;;;;;;;14.77;8.55;;;;;;;6.04;43.55;100964.41;4994447;28;20045;-79
2022/03/07 05:18:58;;;;;;;13.73;7.63;;;;;;;6.06;44.13;100959.50;4982761;28;20050;-79
2022/03/07 05:21:42;;;;;;;15.95;7.78;;;;;;;6.12;44.33;100963.81;4980662;28;20530;-79
2022/03/07 05:24:27;;;;;;;13.97;7.23;;;;;;;5.99;43.71;100971.41;4991741;28;20435;-79
2022/03/07 05:27:12;;;;;;;13.60;8.48;;;;;;;6.06;44.06;100970.31;4994841;28;20522;-79
2022/03/07 05:29:57;;;;;;;12.77;7.68;;;;;;;6.14;43.45;100961.63;4978777;28;20045;-77
2022/03/07 05:32:47;;;;;;;13.20;7.28;;;;;;;6.07;43.25;100966.53;4995081;28;20048;-77
2022/03/07 05:35:31;;;;;;;19.67;10.63;;;;;;;6.14;43.57;100972.44;4974545;28;20423;-79
2022/03/07 05:38:17;;;;;;;15.95;8.95;;;;;;;5.87;41.79;100973.66;4987114;28;20465;-78
2022/03/07 05:41:02;;;;;;;;;;;;;;;5.99;43.58;100967.94;4997576;28;20054;-79
2022/03/07 05:43:47;;;;;;;22.10;10.05;;;;;;;6.04;43.84;100972.50;5010638;28;19917;-78
2022/03/07 05:46:31;;;;;;;15.30;9.00;;;;;;;5.95;43.11;100969.56;4993374;28;20045;-78
2022/03/07 05:49:16;;;;;;;12.45;7.43;;;;;;;4.60;44.42;100970.41;4998384;28;20567;-77
2022/03/07 05:52:01;;;;;;;13.38;8.90;;;;;;;4.03;45.96;100983.25;4997542;28;20410;-77
2022/03/07 05:54:46;;;;;;;15.55;8.38;;;;;;;3.69;47.80;100985.56;4996385;28;20057;-77
2022/03/07 05:57:31;;;;;;;15.98;8.75;;;;;;;2.67;49.98;100986.81;4996626;28;20037;-76
2022/03/07 06:00:16;;;;;;;17.73;9.70;;;;;;;3.01;50.11;100987.31;4995978;28;20057;-76
2022/03/07 06:03:01;;;;;;;17.83;9.10;;;;;;;3.51;50.75;100989.50;4979314;28;20045;-77
2022/03/07 06:05:46;;;;;;;22.77;9.57;;;;;;;3.25;50.29;100995.81;4998093;28;20441;-76
2022/03/07 06:08:30;;;;;;;19.17;9.63;;;;;;;3.19;50.16;100994.97;4978628;28;20049;-77
2022/03/07 06:11:15;;;;;;;17.08;9.00;;;;;;;2.84;50.99;100997.41;4978600;28;20050;-76
2022/03/07 06:14:00;;;;;;;36.67;14.93;;;;;;;3.64;48.56;101001.66;4981411;28;20054;-76
2022/03/07 06:16:44;;;;;;;25.87;11.97;;;;;;;4.98;45.30;101005.94;4985514;28;20045;-77
2022/03/07 06:19:29;;;;;;;19.98;10.77;;;;;;;6.29;42.09;100997.47;4983657;28;20722;-77
2022/03/07 06:22:14;;;;;;;15.43;9.68;;;;;;;5.69;42.51;100995.81;4991990;28;20058;-77
2022/03/07 06:24:59;;;;;;;22.30;9.23;;;;;;;8.10;38.71;101001.34;4983612;28;20046;-77
2022/03/07 06:27:44;;;;;;;20.95;12.23;;;;;;;8.43;37.21;101011.19;4963562;28;20534;-76
2022/03/07 06:30:29;;;;;;;18.70;10.00;;;;;;;9.04;36.61;101015.66;4995540;28;20515;-76
2022/03/07 06:33:16;;;;;;;15.48;10.32;;;;;;;9.16;36.67;101013.28;4984430;28;20525;-76
2022/03/07 06:36:03;;;;;;;24.52;13.07;;;;;;;10.91;34.14;101017.22;4994041;28;20045;-77
2022/03/07 06:38:48;;;;;;;33.40;13.88;;;;;;;11.43;33.04;101021.00;4997677;28;20042;-76
2022/03/07 06:41:33;;;;;;;39.93;13.80;;;;;;;12.29;31.39;101018.56;4997829;28;20038;-77
2022/03/07 06:44:17;;;;;;;29.90;11.48;;;;;;;12.80;29.82;101025.16;4997632;28;20046;-77
2022/03/07 06:47:02;;;;;;;24.52;11.80;;;;;;;11.97;30.18;101027.19;4998624;28;20042;-78
2022/03/07 06:49:51;;;;;;;28.42;10.02;;;;;;;13.54;27.73;101036.63;4998260;28;20534;-78
2022/03/07 06:52:36;;;;;;;19.73;11.40;;;;;;;9.74;33.62;101031.75;4997579;28;20411;-78
2022/03/07 06:55:21;;;;;;;23.33;12.15;;;;;;;8.56;36.40;101039.47;4983361;28;20068;-78
2022/03/07 06:58:06;;;;;;;30.08;9.55;;;;;;;7.69;38.16;101044.34;4997799;28;20062;-77
2022/03/07 07:00:51;;;;;;;38.47;10.52;;;;;;;7.10;39.11;101041.97;4983982;28;20053;-78
2022/03/07 07:03:35;;;;;;;24.27;10.75;;;;;;;6.82;41.67;101047.06;4997504;28;20057;-78
2022/03/07 07:06:20;;;;;;;16.60;9.13;;;;;;;6.85;41.48;101054.63;4995451;28;20046;-78
2022/03/07 07:09:05;;;;;;;27.40;10.75;;;;;;;6.54;41.68;101045.09;4979641;28;20046;-78
2022/03/07 07:11:50;;;;;;;22.80;11.80;;;;;;;6.51;41.80;101048.34;4988291;28;20049;-78
2022/03/07 07:14:36;;;;;;;31.98;9.18;;;;;;;6.46;42.31;101045.69;4988844;28;20534;-76
2022/03/07 07:17:21;;;;;;;21.05;11.20;;;;;;;6.81;41.19;101056.25;4996539;28;20045;-77
2022/03/07 07:20:10;;;;;;;20.95;10.02;;;;;;;6.54;42.32;101049.69;4986813;28;20050;-77
2022/03/07 07:22:54;;;;;;;23.65;11.85;;;;;;;5.74;44.24;101049.75;4986801;28;20629;-77
2022/03/07 07:25:39;;;;;;;21.55;10.73;;;;;;;5.53;47.10;101054.41;4988956;28;20046;-76
2022/03/07 07:28:23;;;;;;;18.90;8.75;;;;;;;6.04;46.10;101057.00;4994606;28;20069;-76
2022/03/07 07:31:08;;;;;;;28.25;9.70;;;;;;;6.20;45.70;101061.22;4998272;28;20046;-77
2022/03/07 07:33:52;;;;;;;24.63;10.17;;;;;;;6.60;44.45;101062.09;4996120;28;20061;-77
2022/03/07 07:36:37;;;;;;;20.85;9.98;;;;;;;6.32;44.15;101063.59;4986714;28;20065;-78
2022/03/07 07:39:22;;;;;;;27.58;10.43;;;;;;;6.72;44.33;101071.44;4994621;28;20137;-77
2022/03/07 07:42:07;;;;;;;32.28;13.18;;;;;;;6.43;44.11;101065.97;4976985;28;20042;-76
2022/03/07 07:44:56;;;;;;;30.27;13.30;;;;;;;6.94;42.83;101072.94;5000228;28;20049;-76
2022/03/07 07:47:42;;;;;;;21.40;8.88;;;;;;;7.22;42.73;101074.84;4988478;28;20049;-77
2022/03/07 07:50:28;;;;;;;33.92;11.07;;;;;;;7.16;41.86;101070.59;4986349;28;20526;-75
2022/03/07 07:53:12;;;;;;;23.77;10.35;;;;;;;6.75;43.05;101076.31;4989124;28;20042;-77
2022/03/07 07:55:57;;;;;;;22.17;10.50;;;;;;;7.43;41.70;101079.00;4983087;28;20057;-77
2022/03/07 07:58:42;;;;;;;71.07;13.60;;;;;;;7.71;39.83;101077.38;4986949;28;20065;-76
2022/03/07 08:01:29;;;;;;;18.27;9.27;;;;;;;7.89;39.35;101081.22;4985435;28;20053;-76
2022/03/07 08:04:13;;;;;;;27.83;11.27;;;;;;;8.12;38.14;101081.22;4985002;28;20525;-76
2022/03/07 08:06:58;;;;;;;36.50;12.00;;;;;;;8.39;38.19;101083.34;4992468;28;20451;-77
2022/03/07 08:09:42;;;;;;;13.83;7.83;;;;;;;8.69;37.04;101092.94;4982424;28;20297;-76
2022/03/07 08:12:27;;;;;;;67.13;13.93;;;;;;;8.80;36.95;101091.69;4986792;28;20053;-76
2022/03/07 08:15:12;;;;;;;22.45;10.13;;;;;;;8.33;36.94;101095.31;4987014;28;20053;-77
2022/03/07 08:17:57;;;;;;;18.33;8.80;;;;;;;8.14;37.08;101092.56;4989832;28;20045;-76
2022/03/07 08:20:42;;;;;;;21.65;9.23;;;;;;;8.60;35.74;101092.00;4997963;28;20541;-76
2022/03/07 08:23:27;;;;;;;14.07;7.30;;;;;;;8.03;36.38;101084.84;4995966;28;20049;-77
2022/03/07 08:26:12;;;;;;;17.60;8.70;;;;;;;8.25;35.83;101085.13;4993484;28;20050;-78
2022/03/07 08:28:58;;;;;;;17.25;9.85;;;;;;;7.79;35.34;101086.75;4993378;28;20553;-76
2022/03/07 08:31:42;;;;;;;13.65;8.00;;;;;;;8.10;35.34;101085.31;4982007;28;20053;-76
2022/03/07 08:34:28;;;;;;;22.75;10.00;;;;;;;8.33;34.85;101083.72;4993389;28;20054;-77
2022/03/07 08:37:13;;;;;;;16.70;8.52;;;;;;;8.46;34.39;101078.38;4997085;28;20414;-76
2022/03/07 08:39:58;;;;;;;13.23;8.07;;;;;;;8.43;35.08;101076.22;4994711;28;20061;-76
2022/03/07 08:42:44;;;;;;;13.27;7.75;;;;;;;8.56;33.90;101077.41;4993455;28;20045;-77
2022/03/07 08:45:29;;;;;;;19.45;10.50;;;;;;;8.32;36.22;101077.47;4993072;28;20509;-77
2022/03/07 08:48:14;;;;;;;13.23;7.68;;;;;;;8.49;34.96;101076.97;4993488;28;20055;-77
2022/03/07 08:50:59;;;;;;;12.50;7.57;;;;;;;8.71;34.05;101079.09;4977585;28;20069;-78
2022/03/07 08:53:44;;;;;;;15.82;7.75;;;;;;;8.75;35.17;101089.06;4987098;28;20045;-77
2022/03/07 08:56:29;;;;;;;10.13;6.38;;;;;;;9.11;32.49;101083.91;4989126;28;20068;-78
2022/03/07 08:59:13;;;;;;;14.73;7.85;;;;;;;8.58;33.26;101086.84;4984912;28;20041;-78
2022/03/07 09:01:58;;;;;;;20.90;9.10;;;;;;;8.75;33.24;101090.97;4988328;28;20061;-78
2022/03/07 09:04:43;;;;;;;17.65;8.65;;;;;;;9.02;34.28;101091.91;4979240;28;20053;-79
2022/03/07 09:07:28;;;;;;;10.80;5.78;;;;;;;9.21;32.23;101088.34;4987092;28;20065;-77
2022/03/07 09:10:13;;;;;;;14.43;8.18;;;;;;;9.32;32.65;101089.78;4985947;28;20073;-79
2022/03/07 09:12:58;;;;;;;11.02;7.38;;;;;;;9.27;32.06;101092.59;4968262;28;20596;-78
2022/03/07 09:15:45;;;;;;;13.13;6.47;;;;;;;9.53;32.46;101091.06;4978682;28;20053;-79
2022/03/07 09:18:30;;;;;;;17.55;8.63;;;;;;;9.32;32.49;101090.59;4989123;28;20049;-79
2022/03/07 09:21:15;;;;;;;16.83;8.98;;;;;;;9.14;32.98;101102.31;4977457;28;20631;-78
2022/03/07 09:24:00;;;;;;;10.35;5.93;;;;;;;9.40;32.00;101098.03;4994060;28;20118;-79
2022/03/07 09:26:45;;;;;;;13.20;6.97;;;;;;;9.91;32.17;101091.69;4994989;28;20050;-79
2022/03/07 09:29:30;;;;;;;14.13;8.48;;;;;;;10.10;31.18;101086.97;4996664;28;20057;-79
2022/03/07 09:32:15;;;;;;;12.60;6.43;;;;;;;10.32;31.36;101093.63;4994040;28;20557;-78
2022/03/07 09:35:00;;;;;;;14.45;7.35;;;;;;;10.26;31.99;101098.34;4993456;28;20509;-81
2022/03/07 09:37:46;;;;;;;13.10;6.70;;;;;;;10.19;31.17;101092.53;5007366;28;20041;-78
2022/03/07 09:40:31;;;;;;;18.00;8.93;;;;;;;10.31;30.98;101089.31;4980828;28;20053;-79
2022/03/07 09:43:15;;;;;;;11.05;6.07;;;;;;;10.15;31.73;101095.03;4993429;28;20050;-81
2022/03/07 09:46:00;;;;;;;12.88;6.75;;;;;;;9.30;32.53;101091.97;4983459;28;20430;-79
2022/03/07 09:48:45;;;;;;;12.18;6.80;;;;;;;9.05;33.36;101095.94;4990791;28;20537;-80
2022/03/07 09:51:30;;;;;;;11.05;6.72;;;;;;;9.49;32.51;101090.06;4978354;28;20054;-79
2022/03/07 09:54:14;;;;;;;13.40;8.38;;;;;;;9.52;32.61;101084.00;4980320;28;20514;-78
2022/03/07 09:56:59;;;;;;;20.42;9.10;;;;;;;9.70;33.14;101068.75;4982197;28;20050;-79
2022/03/07 09:59:44;;;;;;;11.27;7.80;;;;;;;9.54;33.39;101073.66;4969909;28;20054;-78
2022/03/07 10:02:29;;;;;;;12.50;6.97;;;;;;;9.27;34.06;101077.13;4979181;28;20049;-77
2022/03/07 10:05:13;;;;;;;12.82;7.25;;;;;;;9.61;32.67;101076.78;4967960;28;20525;-78
2022/03/07 10:07:58;;;;;;;11.07;6.80;;;;;;;9.63;33.37;101069.16;4992330;28;20053;-77
2022/03/07 10:10:42;;;;;;;14.85;9.18;;;;;;;9.71;32.84;101070.34;4970425;28;20378;-77
2022/03/07 10:13:27;;;;;;;12.80;7.43;;;;;;;10.14;32.57;101073.59;4982901;28;20053;-77
2022/03/07 10:16:12;;;;;;;14.85;7.85;;;;;;;10.26;31.93;101077.41;4995930;28;20053;-76
2022/03/07 10:18:57;;;;;;;13.32;7.45;;;;;;;10.32;32.05;101074.59;4986131;28;20049;-79
2022/03/07 10:21:47;;;;;;;12.73;7.03;;;;;;;10.04;32.38;101069.16;4976171;28;20436;-79
2022/03/07 10:24:33;;;;;;;13.82;8.65;;;;;;;10.26;32.83;101071.16;4982688;28;20073;-79
2022/03/07 10:27:27;;;;;;;13.32;8.00;;;;;;;10.38;32.79;101067.94;4995531;28;20061;-79
2022/03/07 10:30:14;;;;;;;17.20;9.27;;;;;;;10.33;32.04;101063.41;4995149;28;20045;-79
2022/03/07 10:33:06;;;;;;;17.13;9.00;;;;;;;10.62;32.30;101066.56;4996099;28;20064;-79
2022/03/07 10:35:53;;;;;;;18.58;8.40;;;;;;;10.91;32.26;101073.53;5000085;28;20065;-79
2022/03/07 10:38:38;;;;;;;13.00;8.38;;;;;;;10.64;32.32;101063.56;4984024;28;20040;-76
2022/03/07 10:41:43;;;;;;;20.50;7.40;;;;;;;10.81;31.41;101060.19;4986263;28;20526;-77
2022/03/07 10:44:29;;;;;;;15.52;8.18;;;;;;;10.67;31.44;101054.75;4985958;28;20049;-77
2022/03/07 10:47:18;;;;;;;13.23;8.43;;;;;;;10.83;31.24;101042.41;4996782;28;20046;-77
2022/03/07 10:50:05;;;;;;;16.90;8.50;;;;;;;10.64;30.81;101044.50;4994497;28;20073;-76
2022/03/07 10:52:52;;;;;;;17.27;9.52;;;;;;;10.74;31.42;101044.28;4995175;28;20057;-78
2022/03/07 10:55:37;;;;;;;19.15;9.13;;;;;;;10.63;31.74;101032.81;4994186;28;20054;-77
2022/03/07 10:58:23;;;;;;;15.70;6.80;;;;;;;10.96;31.49;101038.03;4995936;28;20058;-77
2022/03/07 11:01:08;;;;;;;17.60;8.48;;;;;;;10.94;31.44;101032.09;5012701;28;20057;-78
2022/03/07 11:03:52;;;;;;;11.23;7.18;;;;;;;11.07;31.11;101020.34;4997018;28;20069;-77
2022/03/07 11:06:39;;;;;;;18.73;9.10;;;;;;;10.96;32.14;101025.25;4996625;28;20057;-79
2022/03/07 11:09:24;;;;;;;14.82;7.68;;;;;;;11.07;31.90;101031.25;5002834;28;20068;-79
2022/03/07 11:12:12;;;;;;;17.13;8.00;;;;;;;11.12;31.30;101014.78;4990334;28;20057;-79
2022/03/07 11:14:58;;;;;;;14.18;8.77;;;;;;;11.26;31.72;101023.66;4995176;28;20045;-78
2022/03/07 11:17:46;;;;;;;12.35;8.43;;;;;;;11.22;31.51;101022.69;4993963;28;20073;-79
2022/03/07 11:20:31;;;;;;;15.30;8.88;;;;;;;11.67;30.60;101019.84;4996608;28;20045;-78
2022/03/07 11:23:23;;;;;;;18.52;8.93;;;;;;;11.77;30.60;101004.06;4986378;28;20049;-79
2022/03/07 11:26:09;;;;;;;15.27;9.30;;;;;;;11.91;29.86;101007.47;4995568;28;20065;-79
2022/03/07 11:28:57;;;;;;;13.30;9.13;;;;;;;12.51;29.51;100998.53;4995055;28;20049;-80
2022/03/07 11:31:43;;;;;;;14.57;8.93;;;;;;;13.27;28.79;100996.06;4989428;28;20115;-77
2022/03/07 11:34:27;;;;;;;15.75;8.93;;;;;;;15.53;25.54;100994.84;4986555;28;20072;-77
2022/03/07 11:37:20;;;;;;;14.10;9.10;;;;;;;19.79;20.24;100987.66;4983594;28;20050;-77
2022/03/07 11:40:25;;;;;;;15.13;8.57;;;;;;;22.80;16.25;100987.84;4986409;28;20545;-78
2022/03/07 11:43:10;;;;;;;15.75;8.68;;;;;;;24.06;15.20;100989.13;4990495;28;20058;-77
2022/03/07 11:45:56;;;;;;;17.60;10.20;;;;;;;24.12;15.09;100978.38;4992493;28;20410;-78
2022/03/07 11:48:45;;;;;;;14.80;9.45;;;;;;;26.90;12.82;100971.03;4992472;28;20046;-78
2022/03/07 11:51:32;;;;;;;21.02;9.80;;;;;;;24.45;14.60;100969.56;4994727;28;20065;-79
2022/03/07 11:54:21;;;;;;;14.20;8.73;;;;;;;26.65;13.18;100976.13;4994361;28;20037;-78
2022/03/07 11:57:09;;;;;;;18.55;9.75;;;;;;;25.74;13.74;100967.56;4991396;28;20085;-79
2022/03/07 11:59:53;;;;;;;17.58;8.63;;;;;;;25.09;14.28;100960.91;4990756;28;20382;-79
2022/03/07 12:02:47;;;;;;;20.45;10.18;;;;;;;23.80;15.34;100951.47;4979523;28;20057;-79
2022/03/07 12:05:33;;;;;;;18.25;9.23;;;;;;;22.78;16.84;100948.59;4986604;28;20047;-78
2022/03/07 12:08:19;;;;;;;17.63;9.88;;;;;;;18.74;20.08;100936.56;4981786;28;20357;-78
2022/03/07 12:11:04;;;;;;;16.23;8.30;;;;;;;16.17;23.65;100932.63;4993093;28;20045;-77
2022/03/07 12:13:49;;;;;;;;;;;;;;;21.63;18.21;100942.84;4994454;28;20061;-78
2022/03/07 12:16:40;;;;;;;17.33;9.50;;;;;;;21.88;17.64;100938.25;4980549;28;19917;-78
2022/03/07 12:19:25;;;;;;;15.45;9.27;;;;;;;22.18;17.53;100933.31;4973926;28;20057;-79
2022/03/07 12:22:15;;;;;;;16.95;9.60;;;;;;;19.60;19.72;100927.84;4978843;28;20696;-78
2022/03/07 12:25:02;;;;;;;15.77;9.20;;;;;;;21.80;18.04;100924.75;4976399;28;20034;-80
2022/03/07 12:27:56;;;;;;;16.02;10.52;;;;;;;23.62;16.22;100928.47;4977700;28;20549;-77
2022/03/07 12:30:41;;;;;;;14.38;9.68;;;;;;;22.33;16.38;100911.22;4974015;28;20520;-79
2022/03/07 12:33:26;;;;;;;14.32;9.55;;;;;;;19.70;20.00;100907.09;4981435;28;20050;-79
2022/03/07 12:36:14;;;;;;;14.60;9.50;;;;;;;19.60;20.24;100905.78;4976243;28;20071;-78
2022/03/07 12:39:00;;;;;;;13.10;9.13;;;;;;;21.33;18.55;100909.81;4986188;28;20522;-78
2022/03/07 12:41:44;;;;;;;19.33;9.95;;;;;;;23.23;17.04;100911.00;4987671;28;20069;-79
2022/03/07 12:44:29;;;;;;;;;;;;;;;21.25;18.28;100899.84;4987685;28;20100;-79
2022/03/07 12:47:14;;;;;;;18.50;9.35;;;;;;;22.54;16.87;100895.44;4979677;28;19918;-79